sensor_id;sensor_type;location;lat;lon;timestamp;P1;durP1;ratioP1;P2;durP2;ratioP2
16330;SDS011;8275;48.206;16.340;2022-10-01T00:01:52;4.60;;;4.30;;
16330;SDS011;8275;48.206;16.340;2022-10-01T00:04:20;5.93;;;5.13;;
16330;SDS011;8275;48.206;16.340;2022-10-01T00:06:49;4.63;;;4.22;;
16330;SDS011;8275;48.206;16.340;2022-10-01T00:09:17;4.65;;;4.13;;
16330;SDS011;8275;48.206;16.340;2022-10-01T00:11:46;4.47;;;3.90;;
16330;SDS011;8275;48.206;16.340;2022-10-01T00:14:14;6.47;;;5.88;;
16330;SDS011;8275;48.206;16.340;2022-10-01T00:16:44;5.13;;;4.45;;
16330;SDS011;8275;48.206;16.340;2022-10-01T00:19:13;5.95;;;5.43;;
16330;SDS011;8275;48.206;16.340;2022-10-01T00:21:41;5.68;;;5.18;;
16330;SDS011;8275;48.206;16.340;2022-10-01T00:24:10;5.22;;;4.68;;
16330;SDS011;8275;48.206;16.340;2022-10-01T00:26:40;6.32;;;5.72;;
16330;SDS011;8275;48.206;16.340;2022-10-01T00:29:11;5.63;;;4.82;;
16330;SDS011;8275;48.206;16.340;2022-10-01T00:31:41;5.78;;;5.20;;
16330;SDS011;8275;48.206;16.340;2022-10-01T00:34:11;6.15;;;5.65;;
16330;SDS011;8275;48.206;16.340;2022-10-01T00:36:40;6.03;;;5.45;;
16330;SDS011;8275;48.206;16.340;2022-10-01T00:39:09;9.20;;;6.10;;
16330;SDS011;8275;48.206;16.340;2022-10-01T00:41:38;5.47;;;5.05;;
16330;SDS011;8275;48.206;16.340;2022-10-01T00:44:26;5.70;;;5.28;;
16330;SDS011;8275;48.206;16.340;2022-10-01T00:47:02;6.10;;;5.50;;
16330;SDS011;8275;48.206;16.340;2022-10-01T00:49:40;6.68;;;6.00;;
16330;SDS011;8275;48.206;16.340;2022-10-01T00:52:13;5.55;;;5.10;;
16330;SDS011;8275;48.206;16.340;2022-10-01T00:54:48;6.57;;;5.97;;
16330;SDS011;8275;48.206;16.340;2022-10-01T00:57:21;5.57;;;5.13;;
16330;SDS011;8275;48.206;16.340;2022-10-01T00:59:53;7.45;;;6.82;;
16330;SDS011;8275;48.206;16.340;2022-10-01T01:02:25;5.88;;;5.38;;
16330;SDS011;8275;48.206;16.340;2022-10-01T01:04:55;5.60;;;5.03;;
16330;SDS011;8275;48.206;16.340;2022-10-01T01:07:24;7.95;;;6.72;;
16330;SDS011;8275;48.206;16.340;2022-10-01T01:09:54;6.00;;;5.25;;
16330;SDS011;8275;48.206;16.340;2022-10-01T01:12:25;6.20;;;5.68;;
16330;SDS011;8275;48.206;16.340;2022-10-01T01:15:11;7.35;;;6.40;;
16330;SDS011;8275;48.206;16.340;2022-10-01T01:17:52;8.57;;;6.15;;
16330;SDS011;8275;48.206;16.340;2022-10-01T01:20:36;9.10;;;7.05;;
16330;SDS011;8275;48.206;16.340;2022-10-01T01:23:37;8.20;;;6.75;;
16330;SDS011;8275;48.206;16.340;2022-10-01T01:26:38;7.13;;;6.50;;
16330;SDS011;8275;48.206;16.340;2022-10-01T01:29:21;7.22;;;6.28;;
16330;SDS011;8275;48.206;16.340;2022-10-01T01:31:54;7.13;;;6.53;;
16330;SDS011;8275;48.206;16.340;2022-10-01T01:34:37;8.25;;;7.45;;
16330;SDS011;8275;48.206;16.340;2022-10-01T01:37:10;7.18;;;6.47;;
16330;SDS011;8275;48.206;16.340;2022-10-01T01:39:43;8.52;;;7.72;;
16330;SDS011;8275;48.206;16.340;2022-10-01T01:42:18;7.53;;;6.70;;
16330;SDS011;8275;48.206;16.340;2022-10-01T01:44:54;7.25;;;6.60;;
16330;SDS011;8275;48.206;16.340;2022-10-01T01:47:26;7.30;;;6.13;;
16330;SDS011;8275;48.206;16.340;2022-10-01T01:49:59;12.65;;;8.32;;
16330;SDS011;8275;48.206;16.340;2022-10-01T01:52:29;15.32;;;9.95;;
16330;SDS011;8275;48.206;16.340;2022-10-01T01:54:59;9.40;;;8.50;;
16330;SDS011;8275;48.206;16.340;2022-10-01T01:57:30;7.32;;;6.40;;
16330;SDS011;8275;48.206;16.340;2022-10-01T02:00:00;7.75;;;6.40;;
16330;SDS011;8275;48.206;16.340;2022-10-01T02:02:30;8.65;;;7.95;;
16330;SDS011;8275;48.206;16.340;2022-10-01T02:05:01;10.30;;;7.18;;
16330;SDS011;8275;48.206;16.340;2022-10-01T02:07:42;7.80;;;6.82;;
16330;SDS011;8275;48.206;16.340;2022-10-01T02:10:47;11.60;;;8.23;;
16330;SDS011;8275;48.206;16.340;2022-10-01T02:13:49;8.02;;;7.22;;
16330;SDS011;8275;48.206;16.340;2022-10-01T02:16:29;9.90;;;8.90;;
16330;SDS011;8275;48.206;16.340;2022-10-01T02:19:10;7.75;;;7.05;;
16330;SDS011;8275;48.206;16.340;2022-10-01T02:21:48;8.38;;;7.55;;
16330;SDS011;8275;48.206;16.340;2022-10-01T02:24:26;9.23;;;8.30;;
16330;SDS011;8275;48.206;16.340;2022-10-01T02:27:05;8.05;;;7.35;;
16330;SDS011;8275;48.206;16.340;2022-10-01T02:29:40;9.30;;;8.23;;
16330;SDS011;8275;48.206;16.340;2022-10-01T02:32:13;9.18;;;8.25;;
16330;SDS011;8275;48.206;16.340;2022-10-01T02:34:43;9.95;;;8.95;;
16330;SDS011;8275;48.206;16.340;2022-10-01T02:37:14;8.95;;;7.43;;
16330;SDS011;8275;48.206;16.340;2022-10-01T02:39:45;10.00;;;7.90;;
16330;SDS011;8275;48.206;16.340;2022-10-01T02:42:17;7.13;;;6.30;;
16330;SDS011;8275;48.206;16.340;2022-10-01T02:44:48;8.23;;;7.43;;
16330;SDS011;8275;48.206;16.340;2022-10-01T02:47:22;8.10;;;6.70;;
16330;SDS011;8275;48.206;16.340;2022-10-01T02:49:59;6.93;;;6.25;;
16330;SDS011;8275;48.206;16.340;2022-10-01T02:52:29;6.90;;;6.20;;
16330;SDS011;8275;48.206;16.340;2022-10-01T02:55:03;7.22;;;5.68;;
16330;SDS011;8275;48.206;16.340;2022-10-01T02:57:36;5.82;;;5.32;;
16330;SDS011;8275;48.206;16.340;2022-10-01T03:00:06;5.63;;;4.95;;
16330;SDS011;8275;48.206;16.340;2022-10-01T03:02:39;5.15;;;4.65;;
16330;SDS011;8275;48.206;16.340;2022-10-01T03:05:07;5.63;;;5.10;;
16330;SDS011;8275;48.206;16.340;2022-10-01T03:07:36;5.20;;;4.80;;
16330;SDS011;8275;48.206;16.340;2022-10-01T03:10:06;5.88;;;4.72;;
16330;SDS011;8275;48.206;16.340;2022-10-01T03:12:37;5.85;;;5.35;;
16330;SDS011;8275;48.206;16.340;2022-10-01T03:15:08;5.63;;;5.13;;
16330;SDS011;8275;48.206;16.340;2022-10-01T03:17:38;5.90;;;5.40;;
16330;SDS011;8275;48.206;16.340;2022-10-01T03:20:07;4.93;;;4.53;;
16330;SDS011;8275;48.206;16.340;2022-10-01T03:22:37;5.20;;;4.80;;
16330;SDS011;8275;48.206;16.340;2022-10-01T03:25:05;7.72;;;5.25;;
16330;SDS011;8275;48.206;16.340;2022-10-01T03:27:35;6.60;;;5.60;;
16330;SDS011;8275;48.206;16.340;2022-10-01T03:30:04;6.47;;;5.85;;
16330;SDS011;8275;48.206;16.340;2022-10-01T03:32:33;5.95;;;5.35;;
16330;SDS011;8275;48.206;16.340;2022-10-01T03:35:04;6.70;;;5.15;;
16330;SDS011;8275;48.206;16.340;2022-10-01T03:37:34;5.82;;;5.32;;
16330;SDS011;8275;48.206;16.340;2022-10-01T03:40:02;7.35;;;4.93;;
16330;SDS011;8275;48.206;16.340;2022-10-01T03:42:32;5.78;;;5.05;;
16330;SDS011;8275;48.206;16.340;2022-10-01T03:45:01;6.40;;;5.90;;
16330;SDS011;8275;48.206;16.340;2022-10-01T03:47:29;7.15;;;6.55;;
16330;SDS011;8275;48.206;16.340;2022-10-01T03:49:58;6.32;;;5.43;;
16330;SDS011;8275;48.206;16.340;2022-10-01T03:52:27;8.23;;;6.53;;
16330;SDS011;8275;48.206;16.340;2022-10-01T03:54:56;8.55;;;5.90;;
16330;SDS011;8275;48.206;16.340;2022-10-01T03:57:25;6.03;;;5.47;;
16330;SDS011;8275;48.206;16.340;2022-10-01T03:59:54;6.75;;;5.80;;
16330;SDS011;8275;48.206;16.340;2022-10-01T04:02:22;5.70;;;5.20;;
16330;SDS011;8275;48.206;16.340;2022-10-01T04:04:53;6.65;;;5.95;;
16330;SDS011;8275;48.206;16.340;2022-10-01T04:07:21;6.40;;;5.50;;
16330;SDS011;8275;48.206;16.340;2022-10-01T04:09:51;5.25;;;4.80;;
16330;SDS011;8275;48.206;16.340;2022-10-01T04:12:19;5.90;;;5.40;;
16330;SDS011;8275;48.206;16.340;2022-10-01T04:14:48;6.65;;;5.82;;
16330;SDS011;8275;48.206;16.340;2022-10-01T04:17:16;6.60;;;5.95;;
16330;SDS011;8275;48.206;16.340;2022-10-01T04:19:45;6.05;;;4.72;;
16330;SDS011;8275;48.206;16.340;2022-10-01T04:22:14;5.70;;;5.20;;
16330;SDS011;8275;48.206;16.340;2022-10-01T04:24:42;5.88;;;4.97;;
16330;SDS011;8275;48.206;16.340;2022-10-01T04:27:12;6.75;;;4.28;;
16330;SDS011;8275;48.206;16.340;2022-10-01T04:29:40;3.88;;;3.50;;
16330;SDS011;8275;48.206;16.340;2022-10-01T04:32:09;5.18;;;4.60;;
16330;SDS011;8275;48.206;16.340;2022-10-01T04:34:37;4.45;;;4.05;;
16330;SDS011;8275;48.206;16.340;2022-10-01T04:37:21;6.25;;;5.60;;
16330;SDS011;8275;48.206;16.340;2022-10-01T04:39:50;4.13;;;3.70;;
16330;SDS011;8275;48.206;16.340;2022-10-01T04:42:20;4.90;;;4.45;;
16330;SDS011;8275;48.206;16.340;2022-10-01T04:44:49;5.93;;;4.32;;
16330;SDS011;8275;48.206;16.340;2022-10-01T04:47:17;5.72;;;5.13;;
16330;SDS011;8275;48.206;16.340;2022-10-01T04:49:45;5.03;;;4.63;;
16330;SDS011;8275;48.206;16.340;2022-10-01T04:52:14;6.47;;;5.88;;
16330;SDS011;8275;48.206;16.340;2022-10-01T04:54:42;7.95;;;7.22;;
16330;SDS011;8275;48.206;16.340;2022-10-01T04:57:10;4.82;;;4.32;;
16330;SDS011;8275;48.206;16.340;2022-10-01T04:59:40;6.47;;;5.72;;
16330;SDS011;8275;48.206;16.340;2022-10-01T05:02:08;7.60;;;6.90;;
16330;SDS011;8275;48.206;16.340;2022-10-01T05:04:37;6.88;;;6.28;;
16330;SDS011;8275;48.206;16.340;2022-10-01T05:07:05;7.40;;;5.70;;
16330;SDS011;8275;48.206;16.340;2022-10-01T05:09:34;6.30;;;5.70;;
16330;SDS011;8275;48.206;16.340;2022-10-01T05:12:02;6.22;;;5.10;;
16330;SDS011;8275;48.206;16.340;2022-10-01T05:14:33;5.40;;;4.90;;
16330;SDS011;8275;48.206;16.340;2022-10-01T05:17:03;5.80;;;4.78;;
16330;SDS011;8275;48.206;16.340;2022-10-01T05:19:32;5.60;;;5.10;;
16330;SDS011;8275;48.206;16.340;2022-10-01T05:22:01;4.57;;;4.15;;
16330;SDS011;8275;48.206;16.340;2022-10-01T05:24:29;6.10;;;4.78;;
16330;SDS011;8275;48.206;16.340;2022-10-01T05:26:58;5.57;;;5.07;;
16330;SDS011;8275;48.206;16.340;2022-10-01T05:29:26;6.25;;;5.57;;
16330;SDS011;8275;48.206;16.340;2022-10-01T05:31:54;4.45;;;3.80;;
16330;SDS011;8275;48.206;16.340;2022-10-01T05:34:25;4.75;;;4.03;;
16330;SDS011;8275;48.206;16.340;2022-10-01T05:36:54;4.22;;;3.90;;
16330;SDS011;8275;48.206;16.340;2022-10-01T05:39:22;4.38;;;3.97;;
16330;SDS011;8275;48.206;16.340;2022-10-01T05:41:51;4.22;;;3.58;;
16330;SDS011;8275;48.206;16.340;2022-10-01T05:44:20;4.25;;;3.85;;
16330;SDS011;8275;48.206;16.340;2022-10-01T05:46:49;4.10;;;3.70;;
16330;SDS011;8275;48.206;16.340;2022-10-01T05:49:18;4.85;;;4.40;;
16330;SDS011;8275;48.206;16.340;2022-10-01T05:51:51;4.75;;;4.35;;
16330;SDS011;8275;48.206;16.340;2022-10-01T05:54:19;5.57;;;5.07;;
16330;SDS011;8275;48.206;16.340;2022-10-01T05:56:50;3.92;;;3.58;;
16330;SDS011;8275;48.206;16.340;2022-10-01T05:59:18;4.13;;;3.83;;
16330;SDS011;8275;48.206;16.340;2022-10-01T06:01:47;3.30;;;3.10;;
16330;SDS011;8275;48.206;16.340;2022-10-01T06:04:15;4.82;;;4.03;;
16330;SDS011;8275;48.206;16.340;2022-10-01T06:06:44;5.35;;;4.95;;
16330;SDS011;8275;48.206;16.340;2022-10-01T06:09:14;4.63;;;4.32;;
16330;SDS011;8275;48.206;16.340;2022-10-01T06:11:42;9.43;;;4.05;;
16330;SDS011;8275;48.206;16.340;2022-10-01T06:14:12;4.32;;;3.97;;
16330;SDS011;8275;48.206;16.340;2022-10-01T06:16:40;4.57;;;4.18;;
16330;SDS011;8275;48.206;16.340;2022-10-01T06:19:09;4.18;;;3.78;;
16330;SDS011;8275;48.206;16.340;2022-10-01T06:21:37;4.22;;;3.83;;
16330;SDS011;8275;48.206;16.340;2022-10-01T06:24:06;6.20;;;4.65;;
16330;SDS011;8275;48.206;16.340;2022-10-01T06:26:36;4.70;;;3.88;;
16330;SDS011;8275;48.206;16.340;2022-10-01T06:29:04;5.75;;;5.15;;
16330;SDS011;8275;48.206;16.340;2022-10-01T06:31:32;6.45;;;4.40;;
16330;SDS011;8275;48.206;16.340;2022-10-01T06:34:01;4.20;;;3.85;;
16330;SDS011;8275;48.206;16.340;2022-10-01T06:36:30;6.30;;;3.75;;
16330;SDS011;8275;48.206;16.340;2022-10-01T06:39:00;4.40;;;3.67;;
16330;SDS011;8275;48.206;16.340;2022-10-01T06:41:28;4.95;;;4.38;;
16330;SDS011;8275;48.206;16.340;2022-10-01T06:43:58;5.43;;;4.95;;
16330;SDS011;8275;48.206;16.340;2022-10-01T06:46:27;4.63;;;4.22;;
16330;SDS011;8275;48.206;16.340;2022-10-01T06:48:57;3.72;;;3.40;;
16330;SDS011;8275;48.206;16.340;2022-10-01T06:51:25;6.35;;;4.72;;
16330;SDS011;8275;48.206;16.340;2022-10-01T06:54:07;5.15;;;4.68;;
16330;SDS011;8275;48.206;16.340;2022-10-01T06:56:36;6.32;;;4.53;;
16330;SDS011;8275;48.206;16.340;2022-10-01T06:59:06;4.15;;;3.78;;
16330;SDS011;8275;48.206;16.340;2022-10-01T07:01:34;3.92;;;3.63;;
16330;SDS011;8275;48.206;16.340;2022-10-01T07:04:03;4.05;;;3.70;;
16330;SDS011;8275;48.206;16.340;2022-10-01T07:06:32;3.70;;;3.40;;
16330;SDS011;8275;48.206;16.340;2022-10-01T07:09:00;4.93;;;4.43;;
16330;SDS011;8275;48.206;16.340;2022-10-01T07:11:29;5.38;;;4.88;;
16330;SDS011;8275;48.206;16.340;2022-10-01T07:13:58;4.50;;;4.10;;
16330;SDS011;8275;48.206;16.340;2022-10-01T07:16:28;4.40;;;3.40;;
16330;SDS011;8275;48.206;16.340;2022-10-01T07:18:56;5.15;;;4.75;;
16330;SDS011;8275;48.206;16.340;2022-10-01T07:21:25;4.60;;;3.78;;
16330;SDS011;8275;48.206;16.340;2022-10-01T07:23:53;3.47;;;3.15;;
16330;SDS011;8275;48.206;16.340;2022-10-01T07:26:22;4.93;;;4.43;;
16330;SDS011;8275;48.206;16.340;2022-10-01T07:28:50;5.22;;;4.63;;
16330;SDS011;8275;48.206;16.340;2022-10-01T07:31:20;5.15;;;4.30;;
16330;SDS011;8275;48.206;16.340;2022-10-01T07:33:56;3.90;;;3.60;;
16330;SDS011;8275;48.206;16.340;2022-10-01T07:36:24;3.80;;;3.50;;
16330;SDS011;8275;48.206;16.340;2022-10-01T07:38:53;5.13;;;4.57;;
16330;SDS011;8275;48.206;16.340;2022-10-01T07:41:21;4.18;;;3.78;;
16330;SDS011;8275;48.206;16.340;2022-10-01T07:43:50;4.50;;;4.03;;
16330;SDS011;8275;48.206;16.340;2022-10-01T07:46:18;8.80;;;5.13;;
16330;SDS011;8275;48.206;16.340;2022-10-01T07:48:47;4.35;;;3.95;;
16330;SDS011;8275;48.206;16.340;2022-10-01T07:51:17;3.90;;;3.50;;
16330;SDS011;8275;48.206;16.340;2022-10-01T07:53:45;4.10;;;3.60;;
16330;SDS011;8275;48.206;16.340;2022-10-01T07:56:14;5.40;;;3.50;;
16330;SDS011;8275;48.206;16.340;2022-10-01T07:58:42;6.53;;;5.30;;
16330;SDS011;8275;48.206;16.340;2022-10-01T08:01:11;3.47;;;3.22;;
16330;SDS011;8275;48.206;16.340;2022-10-01T08:03:39;3.08;;;2.83;;
16330;SDS011;8275;48.206;16.340;2022-10-01T08:06:10;3.88;;;3.55;;
16330;SDS011;8275;48.206;16.340;2022-10-01T08:08:40;2.88;;;2.67;;
16330;SDS011;8275;48.206;16.340;2022-10-01T08:11:09;4.60;;;4.25;;
16330;SDS011;8275;48.206;16.340;2022-10-01T08:13:39;4.35;;;4.05;;
16330;SDS011;8275;48.206;16.340;2022-10-01T08:16:08;4.55;;;3.53;;
16330;SDS011;8275;48.206;16.340;2022-10-01T08:18:37;3.45;;;3.15;;
16330;SDS011;8275;48.206;16.340;2022-10-01T08:21:06;2.83;;;2.63;;
16330;SDS011;8275;48.206;16.340;2022-10-01T08:23:35;3.20;;;3.00;;
16330;SDS011;8275;48.206;16.340;2022-10-01T08:26:05;2.90;;;2.65;;
16330;SDS011;8275;48.206;16.340;2022-10-01T08:28:34;3.38;;;3.05;;
16330;SDS011;8275;48.206;16.340;2022-10-01T08:31:03;2.53;;;2.33;;
16330;SDS011;8275;48.206;16.340;2022-10-01T08:33:35;3.42;;;3.17;;
16330;SDS011;8275;48.206;16.340;2022-10-01T08:36:05;3.80;;;3.47;;
16330;SDS011;8275;48.206;16.340;2022-10-01T08:38:34;2.85;;;2.65;;
16330;SDS011;8275;48.206;16.340;2022-10-01T08:41:11;4.57;;;3.17;;
16330;SDS011;8275;48.206;16.340;2022-10-01T08:43:56;4.72;;;2.63;;
16330;SDS011;8275;48.206;16.340;2022-10-01T08:46:28;3.00;;;2.55;;
16330;SDS011;8275;48.206;16.340;2022-10-01T08:49:01;3.03;;;2.70;;
16330;SDS011;8275;48.206;16.340;2022-10-01T08:51:43;2.72;;;2.55;;
16330;SDS011;8275;48.206;16.340;2022-10-01T08:54:25;2.83;;;2.63;;
16330;SDS011;8275;48.206;16.340;2022-10-01T08:57:03;3.03;;;2.45;;
16330;SDS011;8275;48.206;16.340;2022-10-01T08:59:38;3.25;;;2.75;;
16330;SDS011;8275;48.206;16.340;2022-10-01T09:02:19;2.95;;;2.75;;
16330;SDS011;8275;48.206;16.340;2022-10-01T09:04:52;2.10;;;1.95;;
16330;SDS011;8275;48.206;16.340;2022-10-01T09:07:40;3.83;;;3.53;;
16330;SDS011;8275;48.206;16.340;2022-10-01T09:10:23;3.50;;;3.20;;
16330;SDS011;8275;48.206;16.340;2022-10-01T09:13:27;4.32;;;3.47;;
16330;SDS011;8275;48.206;16.340;2022-10-01T09:16:17;3.25;;;2.95;;
16330;SDS011;8275;48.206;16.340;2022-10-01T09:18:59;3.55;;;3.25;;
16330;SDS011;8275;48.206;16.340;2022-10-01T09:21:45;2.55;;;2.35;;
16330;SDS011;8275;48.206;16.340;2022-10-01T09:24:24;2.42;;;2.22;;
16330;SDS011;8275;48.206;16.340;2022-10-01T09:27:10;2.90;;;2.70;;
16330;SDS011;8275;48.206;16.340;2022-10-01T09:29:45;6.88;;;2.72;;
16330;SDS011;8275;48.206;16.340;2022-10-01T09:32:18;2.85;;;2.50;;
16330;SDS011;8275;48.206;16.340;2022-10-01T09:34:50;3.55;;;3.25;;
16330;SDS011;8275;48.206;16.340;2022-10-01T09:37:22;2.50;;;2.28;;
16330;SDS011;8275;48.206;16.340;2022-10-01T09:40:02;3.00;;;2.78;;
16330;SDS011;8275;48.206;16.340;2022-10-01T09:42:41;3.38;;;3.08;;
16330;SDS011;8275;48.206;16.340;2022-10-01T09:45:11;3.08;;;2.80;;
16330;SDS011;8275;48.206;16.340;2022-10-01T09:47:42;4.80;;;3.55;;
16330;SDS011;8275;48.206;16.340;2022-10-01T09:50:17;3.20;;;2.90;;
16330;SDS011;8275;48.206;16.340;2022-10-01T09:52:51;3.03;;;2.78;;
16330;SDS011;8275;48.206;16.340;2022-10-01T09:55:26;3.25;;;3.00;;
16330;SDS011;8275;48.206;16.340;2022-10-01T09:58:01;4.30;;;2.40;;
16330;SDS011;8275;48.206;16.340;2022-10-01T10:00:36;2.78;;;2.38;;
16330;SDS011;8275;48.206;16.340;2022-10-01T10:03:06;3.33;;;2.70;;
16330;SDS011;8275;48.206;16.340;2022-10-01T10:05:39;2.30;;;2.13;;
16330;SDS011;8275;48.206;16.340;2022-10-01T10:08:12;3.75;;;3.15;;
16330;SDS011;8275;48.206;16.340;2022-10-01T10:10:49;3.78;;;3.42;;
16330;SDS011;8275;48.206;16.340;2022-10-01T10:13:21;2.55;;;2.38;;
16330;SDS011;8275;48.206;16.340;2022-10-01T10:16:07;3.20;;;2.90;;
16330;SDS011;8275;48.206;16.340;2022-10-01T10:18:50;5.95;;;3.78;;
16330;SDS011;8275;48.206;16.340;2022-10-01T10:21:23;5.10;;;3.58;;
16330;SDS011;8275;48.206;16.340;2022-10-01T10:23:55;2.65;;;2.45;;
16330;SDS011;8275;48.206;16.340;2022-10-01T10:26:26;2.53;;;2.33;;
16330;SDS011;8275;48.206;16.340;2022-10-01T10:28:58;3.80;;;3.17;;
16330;SDS011;8275;48.206;16.340;2022-10-01T10:31:33;2.65;;;2.45;;
16330;SDS011;8275;48.206;16.340;2022-10-01T10:34:10;2.60;;;2.40;;
16330;SDS011;8275;48.206;16.340;2022-10-01T10:36:43;1.95;;;1.85;;
16330;SDS011;8275;48.206;16.340;2022-10-01T10:39:16;1.75;;;1.65;;
16330;SDS011;8275;48.206;16.340;2022-10-01T10:41:49;1.52;;;1.42;;
16330;SDS011;8275;48.206;16.340;2022-10-01T10:44:19;4.18;;;1.70;;
16330;SDS011;8275;48.206;16.340;2022-10-01T10:46:52;1.83;;;1.73;;
16330;SDS011;8275;48.206;16.340;2022-10-01T10:49:27;1.77;;;1.67;;
16330;SDS011;8275;48.206;16.340;2022-10-01T10:51:59;2.05;;;1.95;;
16330;SDS011;8275;48.206;16.340;2022-10-01T10:54:29;2.47;;;2.28;;
16330;SDS011;8275;48.206;16.340;2022-10-01T10:57:01;1.55;;;1.38;;
16330;SDS011;8275;48.206;16.340;2022-10-01T10:59:52;2.08;;;1.88;;
16330;SDS011;8275;48.206;16.340;2022-10-01T11:02:25;2.72;;;2.53;;
16330;SDS011;8275;48.206;16.340;2022-10-01T11:04:56;1.88;;;1.77;;
16330;SDS011;8275;48.206;16.340;2022-10-01T11:07:28;2.13;;;1.92;;
16330;SDS011;8275;48.206;16.340;2022-10-01T11:12:57;3.33;;;2.30;;
16330;SDS011;8275;48.206;16.340;2022-10-01T11:15:47;3.08;;;2.35;;
16330;SDS011;8275;48.206;16.340;2022-10-01T11:18:48;1.48;;;1.38;;
16330;SDS011;8275;48.206;16.340;2022-10-01T11:21:34;1.75;;;1.65;;
16330;SDS011;8275;48.206;16.340;2022-10-01T11:24:27;1.50;;;1.40;;
16330;SDS011;8275;48.206;16.340;2022-10-01T11:27:14;1.77;;;1.67;;
16330;SDS011;8275;48.206;16.340;2022-10-01T11:29:52;2.92;;;2.72;;
16330;SDS011;8275;48.206;16.340;2022-10-01T11:32:32;4.30;;;2.67;;
16330;SDS011;8275;48.206;16.340;2022-10-01T11:35:17;3.22;;;3.03;;
16330;SDS011;8275;48.206;16.340;2022-10-01T11:38:16;3.70;;;3.42;;
16330;SDS011;8275;48.206;16.340;2022-10-01T11:41:14;3.60;;;2.95;;
16330;SDS011;8275;48.206;16.340;2022-10-01T11:43:58;3.45;;;3.15;;
16330;SDS011;8275;48.206;16.340;2022-10-01T11:46:40;2.90;;;2.70;;
16330;SDS011;8275;48.206;16.340;2022-10-01T11:49:30;3.40;;;3.10;;
16330;SDS011;8275;48.206;16.340;2022-10-01T11:52:19;2.83;;;2.63;;
16330;SDS011;8275;48.206;16.340;2022-10-01T11:55:08;3.47;;;3.17;;
16330;SDS011;8275;48.206;16.340;2022-10-01T11:58:04;3.88;;;3.53;;
16330;SDS011;8275;48.206;16.340;2022-10-01T12:01:01;3.13;;;2.92;;
16330;SDS011;8275;48.206;16.340;2022-10-01T12:03:43;2.75;;;2.55;;
16330;SDS011;8275;48.206;16.340;2022-10-01T12:06:25;4.72;;;3.63;;
16330;SDS011;8275;48.206;16.340;2022-10-01T12:09:01;3.15;;;2.78;;
16330;SDS011;8275;48.206;16.340;2022-10-01T12:11:41;3.00;;;2.80;;
16330;SDS011;8275;48.206;16.340;2022-10-01T12:14:19;2.97;;;2.60;;
16330;SDS011;8275;48.206;16.340;2022-10-01T12:16:53;4.32;;;3.92;;
16330;SDS011;8275;48.206;16.340;2022-10-01T12:19:30;4.05;;;3.15;;
16330;SDS011;8275;48.206;16.340;2022-10-01T12:22:03;3.50;;;3.30;;
16330;SDS011;8275;48.206;16.340;2022-10-01T12:24:42;3.08;;;2.78;;
16330;SDS011;8275;48.206;16.340;2022-10-01T12:27:25;6.88;;;3.38;;
16330;SDS011;8275;48.206;16.340;2022-10-01T12:30:07;3.38;;;3.08;;
16330;SDS011;8275;48.206;16.340;2022-10-01T12:32:45;2.63;;;2.42;;
16330;SDS011;8275;48.206;16.340;2022-10-01T12:35:45;3.53;;;2.85;;
16330;SDS011;8275;48.206;16.340;2022-10-01T12:38:27;2.83;;;1.70;;
16330;SDS011;8275;48.206;16.340;2022-10-01T12:41:15;2.47;;;1.90;;
16330;SDS011;8275;48.206;16.340;2022-10-01T12:44:04;1.30;;;1.23;;
16330;SDS011;8275;48.206;16.340;2022-10-01T12:46:56;1.40;;;1.30;;
16330;SDS011;8275;48.206;16.340;2022-10-01T12:49:39;1.38;;;1.35;;
16330;SDS011;8275;48.206;16.340;2022-10-01T12:52:15;2.05;;;1.95;;
16330;SDS011;8275;48.206;16.340;2022-10-01T12:55:10;1.73;;;1.58;;
16330;SDS011;8275;48.206;16.340;2022-10-01T12:57:55;1.52;;;1.42;;
16330;SDS011;8275;48.206;16.340;2022-10-01T13:00:32;2.70;;;1.85;;
16330;SDS011;8275;48.206;16.340;2022-10-01T13:08:56;1.52;;;1.42;;
16330;SDS011;8275;48.206;16.340;2022-10-01T13:11:40;1.45;;;1.33;;
16330;SDS011;8275;48.206;16.340;2022-10-01T13:14:28;1.88;;;1.67;;
16330;SDS011;8275;48.206;16.340;2022-10-01T13:17:00;1.27;;;0.85;;
16330;SDS011;8275;48.206;16.340;2022-10-01T13:19:36;1.67;;;1.58;;
16330;SDS011;8275;48.206;16.340;2022-10-01T13:22:14;1.27;;;1.23;;
16330;SDS011;8275;48.206;16.340;2022-10-01T13:24:52;1.75;;;1.65;;
16330;SDS011;8275;48.206;16.340;2022-10-01T13:27:33;1.45;;;1.35;;
16330;SDS011;8275;48.206;16.340;2022-10-01T13:30:13;1.85;;;1.75;;
16330;SDS011;8275;48.206;16.340;2022-10-01T13:32:49;2.33;;;1.70;;
16330;SDS011;8275;48.206;16.340;2022-10-01T13:35:24;2.15;;;1.13;;
16330;SDS011;8275;48.206;16.340;2022-10-01T13:38:11;1.80;;;1.70;;
16330;SDS011;8275;48.206;16.340;2022-10-01T13:40:42;3.88;;;2.03;;
16330;SDS011;8275;48.206;16.340;2022-10-01T13:43:13;2.00;;;1.90;;
16330;SDS011;8275;48.206;16.340;2022-10-01T13:45:46;1.95;;;1.85;;
16330;SDS011;8275;48.206;16.340;2022-10-01T13:48:17;2.55;;;2.28;;
16330;SDS011;8275;48.206;16.340;2022-10-01T13:50:53;1.73;;;1.63;;
16330;SDS011;8275;48.206;16.340;2022-10-01T13:53:28;1.98;;;1.25;;
16330;SDS011;8275;48.206;16.340;2022-10-01T13:56:00;2.45;;;1.55;;
16330;SDS011;8275;48.206;16.340;2022-10-01T13:58:31;1.65;;;1.52;;
16330;SDS011;8275;48.206;16.340;2022-10-01T14:01:22;2.08;;;1.85;;
16330;SDS011;8275;48.206;16.340;2022-10-01T14:03:58;2.53;;;2.33;;
16330;SDS011;8275;48.206;16.340;2022-10-01T14:06:37;1.90;;;1.73;;
16330;SDS011;8275;48.206;16.340;2022-10-01T14:09:12;2.15;;;2.00;;
16330;SDS011;8275;48.206;16.340;2022-10-01T14:11:46;3.42;;;1.67;;
16330;SDS011;8275;48.206;16.340;2022-10-01T14:14:36;1.40;;;1.30;;
16330;SDS011;8275;48.206;16.340;2022-10-01T14:17:26;1.55;;;1.45;;
16330;SDS011;8275;48.206;16.340;2022-10-01T14:19:58;2.03;;;1.58;;
16330;SDS011;8275;48.206;16.340;2022-10-01T14:22:32;1.80;;;1.42;;
16330;SDS011;8275;48.206;16.340;2022-10-01T14:25:27;1.80;;;1.70;;
16330;SDS011;8275;48.206;16.340;2022-10-01T14:28:11;2.40;;;1.85;;
16330;SDS011;8275;48.206;16.340;2022-10-01T14:31:28;1.80;;;1.70;;
16330;SDS011;8275;48.206;16.340;2022-10-01T14:34:16;2.47;;;1.67;;
16330;SDS011;8275;48.206;16.340;2022-10-01T14:37:07;1.52;;;1.45;;
16330;SDS011;8275;48.206;16.340;2022-10-01T14:39:42;2.28;;;2.05;;
16330;SDS011;8275;48.206;16.340;2022-10-01T14:42:12;2.05;;;1.80;;
16330;SDS011;8275;48.206;16.340;2022-10-01T14:44:44;1.75;;;1.65;;
16330;SDS011;8275;48.206;16.340;2022-10-01T14:47:16;2.38;;;2.13;;
16330;SDS011;8275;48.206;16.340;2022-10-01T14:49:48;3.65;;;2.15;;
16330;SDS011;8275;48.206;16.340;2022-10-01T14:52:21;6.43;;;3.75;;
16330;SDS011;8275;48.206;16.340;2022-10-01T14:54:55;3.67;;;2.95;;
16330;SDS011;8275;48.206;16.340;2022-10-01T14:57:30;2.22;;;2.03;;
16330;SDS011;8275;48.206;16.340;2022-10-01T15:00:03;1.80;;;1.70;;
16330;SDS011;8275;48.206;16.340;2022-10-01T15:02:42;2.08;;;1.58;;
16330;SDS011;8275;48.206;16.340;2022-10-01T15:05:21;3.35;;;2.35;;
16330;SDS011;8275;48.206;16.340;2022-10-01T15:07:52;2.58;;;2.38;;
16330;SDS011;8275;48.206;16.340;2022-10-01T15:10:21;3.22;;;2.92;;
16330;SDS011;8275;48.206;16.340;2022-10-01T15:12:54;2.28;;;2.03;;
16330;SDS011;8275;48.206;16.340;2022-10-01T15:15:23;1.63;;;1.52;;
16330;SDS011;8275;48.206;16.340;2022-10-01T15:17:55;2.00;;;1.83;;
16330;SDS011;8275;48.206;16.340;2022-10-01T15:20:26;3.40;;;2.58;;
16330;SDS011;8275;48.206;16.340;2022-10-01T15:22:54;2.88;;;2.53;;
16330;SDS011;8275;48.206;16.340;2022-10-01T15:25:27;3.30;;;3.00;;
16330;SDS011;8275;48.206;16.340;2022-10-01T15:27:57;2.38;;;2.17;;
16330;SDS011;8275;48.206;16.340;2022-10-01T15:30:26;2.72;;;2.30;;
16330;SDS011;8275;48.206;16.340;2022-10-01T15:32:55;3.97;;;3.58;;
16330;SDS011;8275;48.206;16.340;2022-10-01T15:35:24;2.63;;;2.45;;
16330;SDS011;8275;48.206;16.340;2022-10-01T15:37:54;4.78;;;4.30;;
16330;SDS011;8275;48.206;16.340;2022-10-01T15:40:26;4.10;;;2.95;;